Main page
METAR-TAF:

METAR-TAF

Airports :

Dubai International Airport

Dubai, United Arab Emirates

latitude: 25-15-10N, longitude: 055-21-52E, elevation: 8 m

Current weather observation

The report was made 59 minutes ago, at 23:00 UTC
Wind 5 kt from the North/Northwest, varying between West and North/Northeast
Temperature 34°C
Humidity 80%
Pressure 994 hPa
Visibility: 6000 m

METAR: OMDB 142300Z 33005KT 280V020 6000 NSC 34/30 Q0994 NOSIG

Time: 03:59 (23:59 UTC)

Forecast

The report was made 59 minutes ago, at 23:00 UTC
Forecast valid from 15 at 00 UTC to 16 at 06 UTC
Wind 5 kt from the South/Southwest
Visibility: 6000 m
Probability 30%
from 15 at 00 UTC to 15 at 04 UTC
Visibility: 3000 m
Broken clouds at a height of 800 ft
haze
Becoming
from 15 at 08 UTC to 15 at 10 UTC
Wind 12 kt from the North/Northwest
Becoming
from 15 at 18 UTC to 15 at 20 UTC
Wind 2 kt from variable directions

TAF: OMDB 142300Z 1500/1606 20005KT 6000 NSC PROB30 1500/1504 3000 HZ BKN008 BECMG 1508/1510 33012KT BECMG 1518/1520 VRB02KT

Weather observations and forecasts of more than 4000 airports (METAR and TAF reports).

The available stations are represented by yellow and red dots on the map.

Hover mouse over dot to see the name of the station.

Then click to see weather observations and forecasts.

To change the map : click on the green buttons with a black cross to zoom in, on the green button with a dash to zoom out, or on the green arrows for adjacent maps.


METAR-TAF: